Time;durP1;ratioP1;P1;durP2;ratioP2;P2;SDS_P1;SDS_P2;PMS_P1;PMS_P2;Temp;Humidity;BMP_temperature;BMP_pressure;BME280_temperature;BME280_humidity;BME280_pressure;Samples;Min_cycle;Max_cycle;Signal;HPM_P1;HPM_P2
2023/05/14 00:00:42;;;;;;;14.65;5.90;;;;;;;;;;4352135;32;317556;-80
2023/05/14 00:03:10;;;;;;;7.82;5.68;;;;;;;;;;4352590;32;330606;-80
2023/05/14 00:05:37;;;;;;;6.80;5.97;;;;;;;;;;4341067;32;351747;-80
2023/05/14 00:08:04;;;;;;;10.07;5.12;;;;;;;;;;4352901;32;317740;-80
2023/05/14 00:10:31;;;;;;;8.98;5.00;;;;;;;;;;4342112;32;318317;-82
2023/05/14 00:12:58;;;;;;;6.90;5.30;;;;;;;;;;4352349;32;317358;-81
2023/05/14 00:15:25;;;;;;;16.37;5.55;;;;;;;;;;4341930;32;317211;-81
2023/05/14 00:17:52;;;;;;;8.27;5.82;;;;;;;;;;4352814;32;332865;-81
2023/05/14 00:20:21;;;;;;;6.43;4.93;;;;;;;;;;4342190;32;344534;-82
2023/05/14 00:22:48;;;;;;;9.15;5.78;;;;;;;;;;4352893;32;317376;-81
2023/05/14 00:25:16;;;;;;;8.65;4.93;;;;;;;;;;4341800;32;317491;-81
2023/05/14 00:27:42;;;;;;;7.32;5.15;;;;;;;;;;4352236;32;316574;-82
2023/05/14 00:30:10;;;;;;;6.85;4.93;;;;;;;;;;4351071;32;334154;-80
2023/05/14 00:32:36;;;;;;;5.35;4.82;;;;;;;;;;4331988;32;317204;-81
2023/05/14 00:35:04;;;;;;;5.85;4.95;;;;;;;;;;4351494;32;317159;-81
2023/05/14 00:37:35;;;;;;;12.17;6.10;;;;;;;;;;4340707;32;317685;-81
2023/05/14 00:40:02;;;;;;;6.32;5.05;;;;;;;;;;4352196;32;318068;-82
2023/05/14 00:42:29;;;;;;;12.75;6.50;;;;;;;;;;4343404;32;317399;-81
2023/05/14 00:44:56;;;;;;;8.48;5.30;;;;;;;;;;4352615;32;318614;-82
2023/05/14 00:47:24;;;;;;;8.68;5.78;;;;;;;;;;4329390;32;317204;-80
2023/05/14 00:49:52;;;;;;;8.52;5.50;;;;;;;;;;4336980;32;345657;-81
2023/05/14 00:52:19;;;;;;;10.32;5.35;;;;;;;;;;4344598;32;316763;-80
2023/05/14 00:54:48;;;;;;;8.02;4.93;;;;;;;;;;4366589;32;318523;-82
2023/05/14 00:57:15;;;;;;;12.13;6.10;;;;;;;;;;4356888;32;317555;-81
2023/05/14 00:59:42;;;;;;;13.38;5.68;;;;;;;;;;4359644;32;317856;-82
2023/05/14 01:02:09;;;;;;;8.90;5.57;;;;;;;;;;4347170;32;348464;-82
2023/05/14 01:04:39;;;;;;;6.75;5.47;;;;;;;;;;4314336;32;317249;-80
2023/05/14 01:07:16;;;;;;;11.05;5.43;;;;;;;;;;4337470;32;317355;-81
2023/05/14 01:09:47;;;;;;;14.10;6.05;;;;;;;;;;4322149;32;421324;-82
2023/05/14 01:12:21;;;;;;;19.35;6.28;;;;;;;;;;4323519;32;352541;-81
2023/05/14 01:14:56;;;;;;;8.30;4.87;;;;;;;;;;4350601;32;317876;-80
2023/05/14 01:17:26;;;;;;;9.38;5.10;;;;;;;;;;4342758;32;317202;-81
2023/05/14 01:19:55;;;;;;;5.25;4.75;;;;;;;;;;4350918;32;317616;-81
2023/05/14 01:22:23;;;;;;;7.57;5.00;;;;;;;;;;4342584;32;317415;-80
2023/05/14 01:24:50;;;;;;;10.37;4.87;;;;;;;;;;4350813;32;317587;-81
2023/05/14 01:27:29;;;;;;;9.65;4.97;;;;;;;;;;4342595;32;317733;-80
2023/05/14 01:30:03;;;;;;;11.00;5.20;;;;;;;;;;4349112;32;316765;-81
2023/05/14 01:32:30;;;;;;;8.52;5.07;;;;;;;;;;4332212;32;318424;-81
2023/05/14 01:35:00;;;;;;;7.47;5.53;;;;;;;;;;4341107;32;322566;-80
2023/05/14 01:37:30;;;;;;;7.03;5.47;;;;;;;;;;4351041;32;317191;-80
2023/05/14 01:39:58;;;;;;;5.65;5.10;;;;;;;;;;4345120;32;317290;-80
2023/05/14 01:42:26;;;;;;;9.07;5.07;;;;;;;;;;4355373;32;316852;-81
2023/05/14 01:44:53;;;;;;;6.57;5.28;;;;;;;;;;4331777;32;317083;-80
2023/05/14 01:47:20;;;;;;;7.90;6.07;;;;;;;;;;4355192;32;316785;-80
2023/05/14 01:49:47;;;;;;;13.82;7.28;;;;;;;;;;4346903;32;317092;-80
2023/05/14 01:52:14;;;;;;;14.38;8.82;;;;;;;;;;4331885;32;340241;-82
2023/05/14 01:54:42;;;;;;;15.45;8.60;;;;;;;;;;4354802;32;318322;-80
2023/05/14 01:57:08;;;;;;;13.60;8.57;;;;;;;;;;4345440;32;318188;-80
2023/05/14 01:59:36;;;;;;;9.70;7.37;;;;;;;;;;4346415;32;318214;-80
2023/05/14 02:02:03;;;;;;;14.38;7.90;;;;;;;;;;4329201;32;317425;-81
2023/05/14 02:04:30;;;;;;;12.15;7.32;;;;;;;;;;4338485;32;318371;-81
2023/05/14 02:06:58;;;;;;;10.95;7.78;;;;;;;;;;4328513;32;317539;-82
2023/05/14 02:09:26;;;;;;;8.85;6.68;;;;;;;;;;4339806;32;318549;-80
2023/05/14 02:11:55;;;;;;;11.52;7.07;;;;;;;;;;4332335;32;317428;-81
2023/05/14 02:14:22;;;;;;;8.02;6.72;;;;;;;;;;4352144;32;317227;-80
2023/05/14 02:16:49;;;;;;;11.80;6.37;;;;;;;;;;4356871;32;316235;-79
2023/05/14 02:19:16;;;;;;;11.77;7.65;;;;;;;;;;4340045;32;415237;-81
2023/05/14 02:21:43;;;;;;;11.45;7.03;;;;;;;;;;4351517;32;316515;-81
2023/05/14 02:24:10;;;;;;;12.02;7.90;;;;;;;;;;4336714;32;318493;-79
2023/05/14 02:26:37;;;;;;;13.90;8.07;;;;;;;;;;4330892;32;316822;-79
2023/05/14 02:29:05;;;;;;;13.15;7.53;;;;;;;;;;4329504;32;317378;-79
2023/05/14 02:31:32;;;;;;;12.00;7.60;;;;;;;;;;4339558;32;318302;-79
2023/05/14 02:34:01;;;;;;;10.45;7.65;;;;;;;;;;4328485;32;318380;-79
2023/05/14 02:36:27;;;;;;;18.62;8.02;;;;;;;;;;4339514;32;318657;-79
2023/05/14 02:38:54;;;;;;;8.45;6.78;;;;;;;;;;4329394;32;318176;-81
2023/05/14 02:41:21;;;;;;;12.77;7.80;;;;;;;;;;4350728;32;317401;-81
2023/05/14 02:43:48;;;;;;;12.40;7.12;;;;;;;;;;4353389;32;318457;-80
2023/05/14 02:46:16;;;;;;;10.48;7.57;;;;;;;;;;4344041;32;318562;-79
2023/05/14 02:48:43;;;;;;;11.45;7.97;;;;;;;;;;4354114;32;316689;-79
2023/05/14 02:51:10;;;;;;;15.77;8.85;;;;;;;;;;4327418;32;317689;-80
2023/05/14 02:53:39;;;;;;;29.15;9.20;;;;;;;;;;4363051;32;347231;-81
2023/05/14 02:56:06;;;;;;;12.48;8.85;;;;;;;;;;4359019;32;318534;-79
2023/05/14 02:58:33;;;;;;;11.02;8.48;;;;;;;;;;4365858;32;318167;-80
2023/05/14 03:01:00;;;;;;;15.70;8.52;;;;;;;;;;4343037;32;317596;-79
2023/05/14 03:03:31;;;;;;;15.98;8.50;;;;;;;;;;4336804;32;317707;-78
2023/05/14 03:05:58;;;;;;;14.95;7.82;;;;;;;;;;4327153;32;318455;-79
2023/05/14 03:08:25;;;;;;;7.43;5.43;;;;;;;;;;4338642;32;317687;-81
2023/05/14 03:10:52;;;;;;;12.18;6.22;;;;;;;;;;4329380;32;316407;-79
2023/05/14 03:13:19;;;;;;;16.27;6.85;;;;;;;;;;4331772;32;317531;-80
2023/05/14 03:15:46;;;;;;;9.00;6.97;;;;;;;;;;4337895;32;317594;-81
2023/05/14 03:18:13;;;;;;;10.52;4.70;;;;;;;;;;4329099;32;317002;-79
2023/05/14 03:20:42;;;;;;;9.23;5.50;;;;;;;;;;4324122;32;317881;-81
2023/05/14 03:23:09;;;;;;;7.87;5.07;;;;;;;;;;4328791;32;317643;-81
2023/05/14 03:25:35;;;;;;;6.70;6.00;;;;;;;;;;4338737;32;317431;-81
2023/05/14 03:28:04;;;;;;;12.07;5.03;;;;;;;;;;4328399;32;317282;-81
2023/05/14 03:30:31;;;;;;;6.78;5.62;;;;;;;;;;4338748;32;317972;-80
2023/05/14 03:32:58;;;;;;;6.97;5.87;;;;;;;;;;4307263;32;317398;-79
2023/05/14 03:35:25;;;;;;;19.25;7.18;;;;;;;;;;4351473;32;317414;-78
2023/05/14 03:37:53;;;;;;;14.90;7.12;;;;;;;;;;4343195;32;318605;-81
2023/05/14 03:40:20;;;;;;;9.60;6.90;;;;;;;;;;4351853;32;318429;-79
2023/05/14 03:42:47;;;;;;;11.00;7.22;;;;;;;;;;4353765;32;317230;-79
2023/05/14 03:45:14;;;;;;;8.85;6.90;;;;;;;;;;4340968;32;317994;-80
2023/05/14 03:47:41;;;;;;;9.70;6.50;;;;;;;;;;4353609;32;316802;-79
2023/05/14 03:50:09;;;;;;;7.80;6.20;;;;;;;;;;4343714;32;316712;-78
2023/05/14 03:52:36;;;;;;;6.22;5.57;;;;;;;;;;4351992;32;315807;-81
2023/05/14 03:55:04;;;;;;;11.73;6.18;;;;;;;;;;4330349;32;317406;-78
2023/05/14 03:57:31;;;;;;;13.10;6.18;;;;;;;;;;4351134;32;350087;-78
2023/05/14 03:59:58;;;;;;;11.52;6.20;;;;;;;;;;4331814;32;318351;-79
2023/05/14 04:02:25;;;;;;;8.75;6.00;;;;;;;;;;4366699;32;317785;-79
2023/05/14 04:04:52;;;;;;;11.63;6.65;;;;;;;;;;4358322;32;317622;-80
2023/05/14 04:07:19;;;;;;;13.98;6.95;;;;;;;;;;4341370;32;317983;-79
2023/05/14 04:09:45;;;;;;;10.18;8.10;;;;;;;;;;4367977;32;318505;-78
2023/05/14 04:12:13;;;;;;;9.20;7.30;;;;;;;;;;4357144;32;318325;-80
2023/05/14 04:14:41;;;;;;;12.65;7.32;;;;;;;;;;4366663;32;316745;-80
2023/05/14 04:17:07;;;;;;;10.82;8.38;;;;;;;;;;4349929;32;318805;-80
2023/05/14 04:19:34;;;;;;;8.88;6.90;;;;;;;;;;4366485;32;318405;-81
2023/05/14 04:22:01;;;;;;;8.00;5.32;;;;;;;;;;4357795;32;317128;-81
2023/05/14 04:24:30;;;;;;;7.60;6.15;;;;;;;;;;4367993;32;317638;-79
2023/05/14 04:26:56;;;;;;;7.47;5.43;;;;;;;;;;4356915;32;317242;-79
2023/05/14 04:29:25;;;;;;;7.75;5.62;;;;;;;;;;4366049;32;336359;-78
2023/05/14 04:31:52;;;;;;;11.12;5.94;;;;;;;;;;4361548;32;317392;-80
2023/05/14 04:34:20;;;;;;;7.80;5.80;;;;;;;;;;4337511;32;317692;-80
2023/05/14 04:36:47;;;;;;;12.73;6.53;;;;;;;;;;4329504;32;316938;-80
2023/05/14 04:39:13;;;;;;;6.78;5.07;;;;;;;;;;4323869;32;318322;-79
2023/05/14 04:41:41;;;;;;;7.18;5.57;;;;;;;;;;4325853;32;317341;-78
2023/05/14 04:44:08;;;;;;;11.30;6.07;;;;;;;;;;4313772;33;317744;-78
2023/05/14 04:46:36;;;;;;;11.55;8.07;;;;;;;;;;4323270;33;317913;-80
2023/05/14 04:49:04;;;;;;;13.33;8.70;;;;;;;;;;4312340;33;318406;-79
2023/05/14 04:51:31;;;;;;;16.33;8.88;;;;;;;;;;4321944;33;318593;-79
2023/05/14 04:53:58;;;;;;;9.20;7.25;;;;;;;;;;4326453;32;318795;-78
2023/05/14 04:56:25;;;;;;;9.43;8.43;;;;;;;;;;4336496;32;316986;-78
2023/05/14 04:58:52;;;;;;;10.18;9.18;;;;;;;;;;4331263;32;318103;-80
2023/05/14 05:01:19;;;;;;;11.13;8.90;;;;;;;;;;4322886;32;318685;-79
2023/05/14 05:03:47;;;;;;;13.82;9.27;;;;;;;;;;4321626;33;318373;-77
2023/05/14 05:06:15;;;;;;;15.52;7.95;;;;;;;;;;4312681;33;318202;-77
2023/05/14 05:08:42;;;;;;;11.63;7.78;;;;;;;;;;4321848;33;318193;-81
2023/05/14 05:11:09;;;;;;;12.00;7.32;;;;;;;;;;4313397;33;318330;-78
2023/05/14 05:13:36;;;;;;;12.40;7.17;;;;;;;;;;4320967;33;318203;-78
2023/05/14 05:16:03;;;;;;;21.77;8.43;;;;;;;;;;4299802;33;318435;-80
2023/05/14 05:18:30;;;;;;;15.27;7.43;;;;;;;;;;4319086;32;318784;-78
2023/05/14 05:20:58;;;;;;;12.13;6.53;;;;;;;;;;4310083;32;318123;-79
2023/05/14 05:23:25;;;;;;;6.20;5.60;;;;;;;;;;4322468;33;318207;-80
2023/05/14 05:25:52;;;;;;;11.57;6.20;;;;;;;;;;4325247;32;317613;-80
2023/05/14 05:28:18;;;;;;;8.68;5.97;;;;;;;;;;4323338;33;318420;-80
2023/05/14 05:30:45;;;;;;;10.70;7.12;;;;;;;;;;4335626;32;317491;-79
2023/05/14 05:33:12;;;;;;;11.52;7.32;;;;;;;;;;4329170;32;318377;-78
2023/05/14 05:35:39;;;;;;;8.98;7.25;;;;;;;;;;4332016;33;347053;-81
2023/05/14 05:38:07;;;;;;;7.75;6.20;;;;;;;;;;4313511;33;317338;-78
2023/05/14 05:40:34;;;;;;;8.38;7.00;;;;;;;;;;4320246;32;316484;-81
2023/05/14 05:43:01;;;;;;;10.70;7.90;;;;;;;;;;4321300;32;316823;-79
2023/05/14 05:45:27;;;;;;;9.00;7.63;;;;;;;;;;4323119;33;318687;-81
2023/05/14 05:47:54;;;;;;;10.03;7.07;;;;;;;;;;4312342;33;317460;-81
2023/05/14 05:50:23;;;;;;;8.07;7.27;;;;;;;;;;4322382;33;318145;-80
2023/05/14 05:52:49;;;;;;;13.10;7.82;;;;;;;;;;4317908;32;317234;-80
2023/05/14 05:55:23;;;;;;;12.03;7.03;;;;;;;;;;4308111;32;334053;-81
2023/05/14 05:57:51;;;;;;;11.53;7.37;;;;;;;;;;4318742;32;317349;-80
2023/05/14 06:00:19;;;;;;;10.57;7.27;;;;;;;;;;4306193;32;417569;-81
2023/05/14 06:02:46;;;;;;;11.23;7.57;;;;;;;;;;4321706;33;317909;-81
2023/05/14 06:05:15;;;;;;;8.55;7.57;;;;;;;;;;4313183;33;318289;-81
2023/05/14 06:07:42;;;;;;;9.83;7.93;;;;;;;;;;4320098;33;317331;-79
2023/05/14 06:10:09;;;;;;;10.43;6.83;;;;;;;;;;4311694;33;317299;-77
2023/05/14 06:12:37;;;;;;;7.77;6.70;;;;;;;;;;4322546;33;318507;-79
2023/05/14 06:15:06;;;;;;;10.37;6.07;;;;;;;;;;4312057;33;316512;-80
2023/05/14 06:17:36;;;;;;;13.40;6.77;;;;;;;;;;4325809;33;317504;-81
2023/05/14 06:20:03;;;;;;;9.43;7.73;;;;;;;;;;4331936;32;316218;-82
2023/05/14 06:22:33;;;;;;;11.80;7.25;;;;;;;;;;4341562;32;315921;-81
2023/05/14 06:25:01;;;;;;;10.73;7.50;;;;;;;;;;4326334;32;318162;-81
2023/05/14 06:27:30;;;;;;;13.03;7.60;;;;;;;;;;4341398;32;316131;-82
2023/05/14 06:30:01;;;;;;;11.55;7.20;;;;;;;;;;4316736;32;317532;-81
2023/05/14 06:32:28;;;;;;;12.27;7.13;;;;;;;;;;4322900;32;318269;-81
2023/05/14 06:34:56;;;;;;;8.33;6.53;;;;;;;;;;4307443;32;317736;-81
2023/05/14 06:37:23;;;;;;;10.80;7.47;;;;;;;;;;4335173;32;317286;-81
2023/05/14 06:39:52;;;;;;;10.97;7.40;;;;;;;;;;4325189;32;318067;-81
2023/05/14 06:42:19;;;;;;;9.43;7.17;;;;;;;;;;4326207;32;417109;-81
2023/05/14 06:44:46;;;;;;;10.00;7.53;;;;;;;;;;4336684;32;317142;-81
2023/05/14 06:47:14;;;;;;;15.20;7.93;;;;;;;;;;4313851;32;318647;-82
2023/05/14 06:49:40;;;;;;;17.60;8.38;;;;;;;;;;4323686;32;318682;-82
2023/05/14 06:52:07;;;;;;;13.90;7.40;;;;;;;;;;4309212;32;318143;-82
2023/05/14 06:54:34;;;;;;;10.23;7.17;;;;;;;;;;4351946;32;318350;-83
2023/05/14 06:57:01;;;;;;;11.27;7.45;;;;;;;;;;4344365;32;318340;-83
2023/05/14 06:59:28;;;;;;;8.10;7.27;;;;;;;;;;4346753;32;317553;-81
2023/05/14 07:02:36;;;;;;;12.57;7.43;;;;;;;;;;4326890;32;317563;-81
2023/05/14 07:05:05;;;;;;;10.77;7.27;;;;;;;;;;4327013;32;318328;-79
2023/05/14 07:07:32;;;;;;;9.27;6.93;;;;;;;;;;4335798;32;317675;-81
2023/05/14 07:09:59;;;;;;;10.40;8.80;;;;;;;;;;4327752;32;317318;-81
2023/05/14 07:12:26;;;;;;;10.52;7.15;;;;;;;;;;4330070;32;318421;-89
2023/05/14 07:14:55;;;;;;;13.02;8.38;;;;;;;;;;4327411;32;317533;-90
2023/05/14 07:17:22;;;;;;;18.35;8.10;;;;;;;;;;4337577;32;318472;-84
2023/05/14 07:19:51;;;;;;;9.32;7.28;;;;;;;;;;4337734;32;317534;-85
2023/05/14 07:22:17;;;;;;;12.40;8.07;;;;;;;;;;4323915;32;419007;-84
2023/05/14 07:24:44;;;;;;;11.02;8.23;;;;;;;;;;4338019;32;318248;-82
2023/05/14 07:27:11;;;;;;;8.60;7.70;;;;;;;;;;4329956;32;318184;-83
2023/05/14 07:29:38;;;;;;;8.02;6.87;;;;;;;;;;4336289;32;317265;-84
2023/05/14 07:32:07;;;;;;;10.45;7.20;;;;;;;;;;4335297;32;317203;-84
2023/05/14 07:34:34;;;;;;;8.67;7.30;;;;;;;;;;4338673;32;317780;-81
2023/05/14 07:37:02;;;;;;;11.97;7.43;;;;;;;;;;4327553;32;317100;-85
2023/05/14 07:39:29;;;;;;;13.10;7.47;;;;;;;;;;4338785;32;318510;-84
2023/05/14 07:41:56;;;;;;;9.93;7.45;;;;;;;;;;4329359;32;318328;-81
2023/05/14 07:44:23;;;;;;;10.10;7.23;;;;;;;;;;4341002;32;317703;-84
2023/05/14 07:46:51;;;;;;;17.48;7.05;;;;;;;;;;4353060;32;317562;-84
2023/05/14 07:49:18;;;;;;;9.43;6.80;;;;;;;;;;4340039;32;417620;-85
2023/05/14 07:51:45;;;;;;;8.33;6.83;;;;;;;;;;4353118;32;316576;-84
2023/05/14 07:54:13;;;;;;;8.63;7.10;;;;;;;;;;4342348;32;317207;-84
2023/05/14 07:56:40;;;;;;;13.43;7.15;;;;;;;;;;4351557;32;316468;-86
2023/05/14 07:59:07;;;;;;;10.52;7.75;;;;;;;;;;4337293;32;317826;-84
2023/05/14 08:01:34;;;;;;;9.45;7.22;;;;;;;;;;4337388;32;318214;-86
2023/05/14 08:04:02;;;;;;;13.50;7.10;;;;;;;;;;4327819;32;317261;-81
2023/05/14 08:06:29;;;;;;;9.85;7.57;;;;;;;;;;4336070;32;318385;-80
2023/05/14 08:08:57;;;;;;;7.72;6.22;;;;;;;;;;4328907;32;317137;-82
2023/05/14 08:11:25;;;;;;;16.20;7.33;;;;;;;;;;4336012;32;317232;-82
2023/05/14 08:13:52;;;;;;;10.67;7.37;;;;;;;;;;4326540;32;318425;-83
2023/05/14 08:16:20;;;;;;;12.15;7.43;;;;;;;;;;4338385;32;318336;-82
2023/05/14 08:18:47;;;;;;;11.45;7.75;;;;;;;;;;4338194;32;317607;-82
2023/05/14 08:21:14;;;;;;;12.00;7.03;;;;;;;;;;4328326;32;318462;-82
2023/05/14 08:23:42;;;;;;;8.98;6.78;;;;;;;;;;4335680;32;317871;-83
2023/05/14 08:26:08;;;;;;;12.23;8.13;;;;;;;;;;4319021;32;317817;-83
2023/05/14 08:28:37;;;;;;;11.80;8.10;;;;;;;;;;4341251;32;336888;-82
2023/05/14 08:31:04;;;;;;;10.87;8.23;;;;;;;;;;4326491;32;359108;-81
2023/05/14 08:33:33;;;;;;;11.68;7.32;;;;;;;;;;4337585;32;318222;-80
2023/05/14 08:36:00;;;;;;;10.02;6.95;;;;;;;;;;4327991;32;318822;-80
2023/05/14 08:38:27;;;;;;;12.90;7.27;;;;;;;;;;4338295;32;318178;-80
2023/05/14 08:40:57;;;;;;;10.23;6.93;;;;;;;;;;4346267;32;318173;-86
2023/05/14 08:43:28;;;;;;;10.95;7.00;;;;;;;;;;4329957;32;418853;-86
2023/05/14 08:46:00;;;;;;;12.00;6.97;;;;;;;;;;4334683;32;318182;-86
2023/05/14 08:48:31;;;;;;;7.87;6.35;;;;;;;;;;4352320;32;318232;-85
2023/05/14 08:50:59;;;;;;;8.03;5.87;;;;;;;;;;4342632;32;317373;-78
2023/05/14 08:53:26;;;;;;;7.50;5.83;;;;;;;;;;4361873;32;317160;-81
2023/05/14 08:55:54;;;;;;;6.07;5.47;;;;;;;;;;4357182;32;317449;-81
2023/05/14 08:58:20;;;;;;;7.50;6.63;;;;;;;;;;4366143;32;317070;-80
2023/05/14 09:00:47;;;;;;;11.53;7.27;;;;;;;;;;4352002;32;316791;-81
2023/05/14 09:03:19;;;;;;;10.77;6.50;;;;;;;;;;4341740;32;318231;-81
2023/05/14 09:05:48;;;;;;;9.65;6.93;;;;;;;;;;4350489;32;317772;-81
2023/05/14 09:08:15;;;;;;;8.10;6.93;;;;;;;;;;4334352;32;346501;-81
2023/05/14 09:10:42;;;;;;;11.70;8.20;;;;;;;;;;4351664;32;317004;-80
2023/05/14 09:13:09;;;;;;;13.70;7.70;;;;;;;;;;4342609;32;318779;-80
2023/05/14 09:15:37;;;;;;;10.32;7.90;;;;;;;;;;4352618;32;318094;-80
2023/05/14 09:18:05;;;;;;;14.83;10.00;;;;;;;;;;4342911;32;318422;-81
2023/05/14 09:20:35;;;;;;;12.93;8.75;;;;;;;;;;4343056;32;318733;-83
2023/05/14 09:23:01;;;;;;;13.13;8.23;;;;;;;;;;4325140;32;318028;-84
2023/05/14 09:25:31;;;;;;;10.35;7.20;;;;;;;;;;4337199;32;317661;-81
2023/05/14 09:27:58;;;;;;;14.47;7.90;;;;;;;;;;4328237;32;318180;-82
2023/05/14 09:30:26;;;;;;;11.97;8.80;;;;;;;;;;4337493;32;318475;-82
2023/05/14 09:32:54;;;;;;;11.70;9.17;;;;;;;;;;4325660;32;318122;-80
2023/05/14 09:35:23;;;;;;;11.68;7.20;;;;;;;;;;4348999;32;318431;-82
2023/05/14 09:37:52;;;;;;;15.15;7.97;;;;;;;;;;4352474;32;318533;-81
2023/05/14 09:40:22;;;;;;;11.43;7.30;;;;;;;;;;4339236;32;419250;-81
2023/05/14 09:42:49;;;;;;;11.90;7.97;;;;;;;;;;4331779;32;317709;-82
2023/05/14 09:45:17;;;;;;;11.23;7.97;;;;;;;;;;4327346;32;318133;-81
2023/05/14 09:47:43;;;;;;;15.70;7.97;;;;;;;;;;4337302;33;327624;-81
2023/05/14 09:50:11;;;;;;;9.53;6.47;;;;;;;;;;4327191;33;318057;-82
2023/05/14 09:52:39;;;;;;;9.70;7.93;;;;;;;;;;4340994;32;316832;-82
2023/05/14 09:55:10;;;;;;;7.13;6.13;;;;;;;;;;4333449;32;322702;-81
2023/05/14 09:57:37;;;;;;;9.70;6.97;;;;;;;;;;4353845;32;316644;-83
2023/05/14 10:00:05;;;;;;;10.00;5.90;;;;;;;;;;4339442;32;316451;-83
2023/05/14 10:02:36;;;;;;;10.38;6.72;;;;;;;;;;4350986;32;318440;-84
2023/05/14 10:05:05;;;;;;;10.70;6.17;;;;;;;;;;4342009;32;318036;-83
2023/05/14 10:07:35;;;;;;;8.00;5.85;;;;;;;;;;4353021;32;318256;-80
2023/05/14 10:10:06;;;;;;;9.77;6.60;;;;;;;;;;4344966;32;316649;-80
2023/05/14 10:12:38;;;;;;;13.33;7.43;;;;;;;;;;4353804;32;316776;-84
2023/05/14 10:15:13;;;;;;;12.37;7.60;;;;;;;;;;4347126;32;318657;-83
2023/05/14 10:17:44;;;;;;;13.83;8.63;;;;;;;;;;4343213;32;353382;-81
2023/05/14 10:20:14;;;;;;;7.83;6.23;;;;;;;;;;4346780;32;317750;-83
2023/05/14 10:22:41;;;;;;;9.77;6.87;;;;;;;;;;4364281;32;316732;-83
2023/05/14 10:25:09;;;;;;;8.13;7.15;;;;;;;;;;4366314;32;315122;-83
2023/05/14 10:27:37;;;;;;;9.27;6.97;;;;;;;;;;4373099;32;315672;-83
2023/05/14 10:30:11;;;;;;;15.40;7.32;;;;;;;;;;4361221;32;316743;-83
2023/05/14 10:32:38;;;;;;;10.05;6.78;;;;;;;;;;4366191;32;318270;-84
2023/05/14 10:35:16;;;;;;;7.47;6.27;;;;;;;;;;4345039;32;317852;-83
2023/05/14 10:37:45;;;;;;;9.48;6.12;;;;;;;;;;4355662;32;317236;-82
2023/05/14 10:40:12;;;;;;;9.10;5.70;;;;;;;;;;4344760;32;316496;-82
2023/05/14 10:42:42;;;;;;;8.90;5.68;;;;;;;;;;4355157;32;318011;-83
2023/05/14 10:45:11;;;;;;;11.65;5.93;;;;;;;;;;4343942;32;316654;-83
2023/05/14 10:47:39;;;;;;;6.80;5.10;;;;;;;;;;4353680;32;318341;-82
2023/05/14 10:50:09;;;;;;;8.60;6.00;;;;;;;;;;4343031;32;317243;-82
2023/05/14 10:52:36;;;;;;;9.38;5.90;;;;;;;;;;4359357;32;317126;-82
2023/05/14 10:55:06;;;;;;;9.98;6.35;;;;;;;;;;4358454;32;316657;-82
2023/05/14 10:57:35;;;;;;;8.05;5.45;;;;;;;;;;4367324;32;317720;-82
2023/05/14 11:00:06;;;;;;;11.52;5.70;;;;;;;;;;4347785;32;317395;-82
2023/05/14 11:02:35;;;;;;;14.48;6.75;;;;;;;;;;4353580;32;317813;-83
2023/05/14 11:05:04;;;;;;;7.40;5.75;;;;;;;;;;4344368;32;317851;-81
2023/05/14 11:07:32;;;;;;;7.87;5.53;;;;;;;;;;4354006;32;317384;-82
2023/05/14 11:10:04;;;;;;;7.97;5.12;;;;;;;;;;4342434;32;317723;-82
2023/05/14 11:12:31;;;;;;;13.02;5.87;;;;;;;;;;4354124;32;317290;-82
2023/05/14 11:15:00;;;;;;;10.52;6.45;;;;;;;;;;4344504;32;318140;-85
2023/05/14 11:17:29;;;;;;;13.40;6.20;;;;;;;;;;4354490;32;318065;-79
2023/05/14 11:19:59;;;;;;;13.82;6.53;;;;;;;;;;4334904;32;318354;-86
2023/05/14 11:22:25;;;;;;;6.62;5.25;;;;;;;;;;4343600;32;319038;-85
2023/05/14 11:24:52;;;;;;;8.50;6.07;;;;;;;;;;4353069;32;317397;-90
2023/05/14 11:27:23;;;;;;;10.10;5.53;;;;;;;;;;4342889;32;317608;-90
2023/05/14 11:29:50;;;;;;;9.57;6.18;;;;;;;;;;4352534;32;318881;-80
2023/05/14 11:32:18;;;;;;;6.47;4.97;;;;;;;;;;4342963;32;317464;-81
2023/05/14 11:34:46;;;;;;;13.20;5.37;;;;;;;;;;4338430;32;317763;-78
2023/05/14 11:37:14;;;;;;;5.80;5.12;;;;;;;;;;4341541;32;318215;-79
2023/05/14 11:39:47;;;;;;;6.45;4.78;;;;;;;;;;4352583;32;317597;-77
2023/05/14 11:42:16;;;;;;;10.60;5.93;;;;;;;;;;4335661;32;317410;-80
2023/05/14 11:44:45;;;;;;;11.88;5.90;;;;;;;;;;4351880;32;318581;-78
2023/05/14 11:47:12;;;;;;;9.40;5.80;;;;;;;;;;4342016;32;317833;-79
2023/05/14 11:49:39;;;;;;;10.95;5.43;;;;;;;;;;4352051;32;317714;-78
2023/05/14 11:52:10;;;;;;;13.52;5.25;;;;;;;;;;4354750;32;319023;-77
2023/05/14 11:54:38;;;;;;;7.95;4.65;;;;;;;;;;4330383;32;318254;-80
2023/05/14 11:57:08;;;;;;;6.78;4.62;;;;;;;;;;4344552;32;316912;-79
2023/05/14 11:59:35;;;;;;;8.98;6.28;;;;;;;;;;4341491;32;317446;-80
2023/05/14 12:02:03;;;;;;;10.70;6.28;;;;;;;;;;4350403;32;316862;-80
2023/05/14 12:04:31;;;;;;;9.23;6.22;;;;;;;;;;4340093;32;318683;-80
2023/05/14 12:06:58;;;;;;;9.10;6.43;;;;;;;;;;4350419;32;317357;-80
2023/05/14 12:09:27;;;;;;;10.20;6.70;;;;;;;;;;4341221;32;317472;-78
2023/05/14 12:11:53;;;;;;;7.57;4.87;;;;;;;;;;4351781;32;318492;-78
2023/05/14 12:14:24;;;;;;;9.50;6.20;;;;;;;;;;4341899;32;317617;-78
2023/05/14 12:16:51;;;;;;;10.73;6.07;;;;;;;;;;4353252;32;317449;-81
2023/05/14 12:19:19;;;;;;;12.02;5.62;;;;;;;;;;4343030;32;318522;-78
2023/05/14 12:21:49;;;;;;;12.60;7.10;;;;;;;;;;4351336;32;318402;-79
2023/05/14 12:24:18;;;;;;;8.85;4.90;;;;;;;;;;4328321;32;318636;-78
2023/05/14 12:26:48;;;;;;;8.43;5.03;;;;;;;;;;4351338;32;317455;-82
2023/05/14 12:29:16;;;;;;;8.43;5.62;;;;;;;;;;4340486;32;317461;-79
2023/05/14 12:31:47;;;;;;;10.82;6.55;;;;;;;;;;4350465;32;316718;-79
2023/05/14 12:34:15;;;;;;;10.02;5.62;;;;;;;;;;4342399;32;318727;-84
2023/05/14 12:36:42;;;;;;;8.10;5.95;;;;;;;;;;4352689;32;318252;-78
2023/05/14 12:39:11;;;;;;;13.25;6.45;;;;;;;;;;4353724;32;317216;-79
2023/05/14 12:41:37;;;;;;;13.82;6.72;;;;;;;;;;4339488;32;419192;-81
2023/05/14 12:44:06;;;;;;;14.13;7.62;;;;;;;;;;4355260;32;318407;-83
2023/05/14 12:46:34;;;;;;;13.35;6.75;;;;;;;;;;4348588;32;318454;-79
2023/05/14 12:49:01;;;;;;;8.75;6.25;;;;;;;;;;4353694;32;318464;-82
2023/05/14 12:51:29;;;;;;;13.43;7.78;;;;;;;;;;4343387;32;317230;-82
2023/05/14 12:53:56;;;;;;;11.00;6.40;;;;;;;;;;4354030;32;318317;-82
2023/05/14 12:56:27;;;;;;;6.78;5.45;;;;;;;;;;4345325;32;336695;-78
2023/05/14 12:58:55;;;;;;;8.57;5.70;;;;;;;;;;4354312;32;317607;-80
2023/05/14 13:01:23;;;;;;;10.95;5.57;;;;;;;;;;4349440;32;317033;-81
2023/05/14 13:03:50;;;;;;;8.48;5.45;;;;;;;;;;4360227;32;318063;-78
2023/05/14 13:06:19;;;;;;;10.00;5.65;;;;;;;;;;4353630;32;340085;-84
2023/05/14 13:08:46;;;;;;;6.30;4.80;;;;;;;;;;4354431;32;317846;-82
2023/05/14 13:11:13;;;;;;;9.07;6.12;;;;;;;;;;4348768;32;390490;-81
2023/05/14 13:13:40;;;;;;;12.20;6.37;;;;;;;;;;4363940;32;317095;-79
2023/05/14 13:16:07;;;;;;;6.40;5.43;;;;;;;;;;4372399;32;318056;-83
2023/05/14 13:18:35;;;;;;;10.50;6.15;;;;;;;;;;4346427;32;317034;-80
2023/05/14 13:21:05;;;;;;;15.38;8.77;;;;;;;;;;4353191;32;318114;-81
2023/05/14 13:23:31;;;;;;;9.23;5.45;;;;;;;;;;4342076;32;318259;-91
2023/05/14 13:25:58;;;;;;;18.70;5.65;;;;;;;;;;4336465;32;317264;-82
2023/05/14 13:28:25;;;;;;;9.98;4.87;;;;;;;;;;4327651;32;319670;-87
2023/05/14 13:31:06;;;;;;;7.40;4.80;;;;;;;;;;4337781;32;317107;-81
2023/05/14 13:33:36;;;;;;;9.27;5.57;;;;;;;;;;4324647;32;317634;-80
2023/05/14 13:36:02;;;;;;;8.70;5.97;;;;;;;;;;4333736;33;317071;-81
2023/05/14 13:38:29;;;;;;;7.32;5.50;;;;;;;;;;4326173;33;316756;-82
2023/05/14 13:41:00;;;;;;;13.82;6.45;;;;;;;;;;4336286;32;319111;-81
2023/05/14 13:43:28;;;;;;;11.27;6.10;;;;;;;;;;4326825;32;318512;-84
2023/05/14 13:45:56;;;;;;;14.65;6.20;;;;;;;;;;4337163;32;318407;-83
2023/05/14 13:48:23;;;;;;;8.07;6.37;;;;;;;;;;4323589;32;318658;-83
2023/05/14 13:50:51;;;;;;;13.98;6.62;;;;;;;;;;4335278;32;317043;-83
2023/05/14 13:53:18;;;;;;;10.20;7.00;;;;;;;;;;4325252;32;354815;-83
2023/05/14 13:55:45;;;;;;;19.27;12.07;;;;;;;;;;4334620;32;317959;-82
2023/05/14 13:58:12;;;;;;;23.12;12.70;;;;;;;;;;4325784;32;319634;-86
2023/05/14 14:00:39;;;;;;;12.20;8.23;;;;;;;;;;4336919;32;319814;-83
2023/05/14 14:03:06;;;;;;;17.05;9.27;;;;;;;;;;4337213;32;318414;-83
2023/05/14 14:05:35;;;;;;;11.27;8.40;;;;;;;;;;4323787;32;317562;-82
2023/05/14 14:08:03;;;;;;;8.68;7.15;;;;;;;;;;4334325;32;318564;-83
2023/05/14 14:10:30;;;;;;;17.12;9.30;;;;;;;;;;4327349;32;316476;-84
2023/05/14 14:12:57;;;;;;;11.18;7.25;;;;;;;;;;4336381;32;318271;-86
2023/05/14 14:15:24;;;;;;;11.03;6.90;;;;;;;;;;4326783;32;318603;-83
2023/05/14 14:17:51;;;;;;;13.95;7.47;;;;;;;;;;4337401;32;318197;-83
2023/05/14 14:20:18;;;;;;;12.68;7.93;;;;;;;;;;4327323;32;318325;-82
2023/05/14 14:22:45;;;;;;;11.25;7.20;;;;;;;;;;4339842;32;317989;-82
2023/05/14 14:25:13;;;;;;;14.25;7.37;;;;;;;;;;4331508;32;317682;-84